sensor_id;sensor_type;location;lat;lon;timestamp;temperature;humidity
56512;DHT22;42408;53.238;5.686;2023-02-28T00:01:26;4.00;99.90
56512;DHT22;42408;53.238;5.686;2023-02-28T00:03:52;4.10;99.90
56512;DHT22;42408;53.238;5.686;2023-02-28T00:06:18;3.90;99.90
56512;DHT22;42408;53.238;5.686;2023-02-28T00:08:43;3.90;99.90
56512;DHT22;42408;53.238;5.686;2023-02-28T00:11:11;3.90;99.90
56512;DHT22;42408;53.238;5.686;2023-02-28T00:13:40;3.90;99.90
56512;DHT22;42408;53.238;5.686;2023-02-28T00:16:11;4.00;99.90
56512;DHT22;42408;53.238;5.686;2023-02-28T00:18:38;3.90;99.90
56512;DHT22;42408;53.238;5.686;2023-02-28T00:21:05;4.00;99.90
56512;DHT22;42408;53.238;5.686;2023-02-28T00:23:31;3.90;99.90
56512;DHT22;42408;53.238;5.686;2023-02-28T00:25:57;3.90;99.90
56512;DHT22;42408;53.238;5.686;2023-02-28T00:28:23;3.90;99.90
56512;DHT22;42408;53.238;5.686;2023-02-28T00:30:49;3.90;99.90
56512;DHT22;42408;53.238;5.686;2023-02-28T00:33:16;3.90;99.90
56512;DHT22;42408;53.238;5.686;2023-02-28T00:35:41;3.90;99.90
56512;DHT22;42408;53.238;5.686;2023-02-28T00:38:07;3.90;99.90
56512;DHT22;42408;53.238;5.686;2023-02-28T00:40:33;3.90;99.90
56512;DHT22;42408;53.238;5.686;2023-02-28T00:42:59;3.90;99.90
56512;DHT22;42408;53.238;5.686;2023-02-28T00:45:25;3.90;99.90
56512;DHT22;42408;53.238;5.686;2023-02-28T00:47:51;3.90;99.90
56512;DHT22;42408;53.238;5.686;2023-02-28T00:50:18;4.00;99.90
56512;DHT22;42408;53.238;5.686;2023-02-28T00:52:44;4.00;99.90
56512;DHT22;42408;53.238;5.686;2023-02-28T00:55:10;4.00;99.90
56512;DHT22;42408;53.238;5.686;2023-02-28T00:57:36;4.00;99.90
56512;DHT22;42408;53.238;5.686;2023-02-28T01:00:03;4.70;99.90
56512;DHT22;42408;53.238;5.686;2023-02-28T01:02:29;4.00;99.90
56512;DHT22;42408;53.238;5.686;2023-02-28T01:04:55;4.00;99.90
56512;DHT22;42408;53.238;5.686;2023-02-28T01:07:22;4.10;99.90
56512;DHT22;42408;53.238;5.686;2023-02-28T01:09:48;4.10;99.90
56512;DHT22;42408;53.238;5.686;2023-02-28T01:12:14;4.10;99.90
56512;DHT22;42408;53.238;5.686;2023-02-28T01:14:40;4.10;99.90
56512;DHT22;42408;53.238;5.686;2023-02-28T01:17:05;4.10;99.90
56512;DHT22;42408;53.238;5.686;2023-02-28T01:19:31;4.10;99.90
56512;DHT22;42408;53.238;5.686;2023-02-28T01:22:01;4.10;99.90
56512;DHT22;42408;53.238;5.686;2023-02-28T01:24:26;4.20;99.90
56512;DHT22;42408;53.238;5.686;2023-02-28T01:26:52;4.90;99.90
56512;DHT22;42408;53.238;5.686;2023-02-28T01:29:18;4.20;99.90
56512;DHT22;42408;53.238;5.686;2023-02-28T01:31:43;4.20;99.90
56512;DHT22;42408;53.238;5.686;2023-02-28T01:34:09;4.20;99.90
56512;DHT22;42408;53.238;5.686;2023-02-28T01:36:34;5.40;99.90
56512;DHT22;42408;53.238;5.686;2023-02-28T01:39:01;4.20;99.90
56512;DHT22;42408;53.238;5.686;2023-02-28T01:41:30;4.20;99.90
56512;DHT22;42408;53.238;5.686;2023-02-28T01:44:53;4.20;99.90
56512;DHT22;42408;53.238;5.686;2023-02-28T01:46:52;4.20;99.90
56512;DHT22;42408;53.238;5.686;2023-02-28T01:49:18;4.20;99.90
56512;DHT22;42408;53.238;5.686;2023-02-28T01:51:55;4.20;99.90
56512;DHT22;42408;53.238;5.686;2023-02-28T01:54:25;4.20;99.90
56512;DHT22;42408;53.238;5.686;2023-02-28T01:57:32;4.20;99.90
56512;DHT22;42408;53.238;5.686;2023-02-28T01:59:56;4.20;99.90
56512;DHT22;42408;53.238;5.686;2023-02-28T02:02:24;4.20;99.90
56512;DHT22;42408;53.238;5.686;2023-02-28T02:04:58;4.20;99.90
56512;DHT22;42408;53.238;5.686;2023-02-28T02:07:29;4.20;99.90
56512;DHT22;42408;53.238;5.686;2023-02-28T02:10:19;4.20;99.90
56512;DHT22;42408;53.238;5.686;2023-02-28T02:16:12;4.20;99.90
56512;DHT22;42408;53.238;5.686;2023-02-28T02:35:53;4.40;99.90
56512;DHT22;42408;53.238;5.686;2023-02-28T02:38:32;4.50;99.90
56512;DHT22;42408;53.238;5.686;2023-02-28T02:41:31;4.40;99.90
56512;DHT22;42408;53.238;5.686;2023-02-28T02:44:02;4.40;99.90
56512;DHT22;42408;53.238;5.686;2023-02-28T02:46:36;4.40;99.90
56512;DHT22;42408;53.238;5.686;2023-02-28T02:49:06;4.50;99.90
56512;DHT22;42408;53.238;5.686;2023-02-28T02:51:35;5.10;99.90
56512;DHT22;42408;53.238;5.686;2023-02-28T02:54:09;4.50;99.90
56512;DHT22;42408;53.238;5.686;2023-02-28T02:56:39;4.50;99.90
56512;DHT22;42408;53.238;5.686;2023-02-28T02:59:10;4.50;99.90
56512;DHT22;42408;53.238;5.686;2023-02-28T03:01:37;4.60;99.90
56512;DHT22;42408;53.238;5.686;2023-02-28T03:04:09;4.60;99.90
56512;DHT22;42408;53.238;5.686;2023-02-28T03:06:35;4.60;99.90
56512;DHT22;42408;53.238;5.686;2023-02-28T03:09:01;4.60;99.90
56512;DHT22;42408;53.238;5.686;2023-02-28T03:11:27;4.60;99.90
56512;DHT22;42408;53.238;5.686;2023-02-28T03:19:33;4.60;99.90
56512;DHT22;42408;53.238;5.686;2023-02-28T03:28:00;4.60;99.90
56512;DHT22;42408;53.238;5.686;2023-02-28T03:33:18;4.70;99.90
56512;DHT22;42408;53.238;5.686;2023-02-28T03:35:54;4.60;99.90
56512;DHT22;42408;53.238;5.686;2023-02-28T03:41:27;4.70;99.90
56512;DHT22;42408;53.238;5.686;2023-02-28T03:43:59;4.70;99.90
56512;DHT22;42408;53.238;5.686;2023-02-28T03:46:30;4.70;99.90
56512;DHT22;42408;53.238;5.686;2023-02-28T03:49:03;4.70;99.90
56512;DHT22;42408;53.238;5.686;2023-02-28T03:51:31;4.70;99.90
56512;DHT22;42408;53.238;5.686;2023-02-28T03:54:02;4.70;99.90
56512;DHT22;42408;53.238;5.686;2023-02-28T03:56:34;4.70;99.90
56512;DHT22;42408;53.238;5.686;2023-02-28T03:59:22;4.70;99.90
56512;DHT22;42408;53.238;5.686;2023-02-28T04:01:51;4.70;99.90
56512;DHT22;42408;53.238;5.686;2023-02-28T04:04:17;4.70;99.90
56512;DHT22;42408;53.238;5.686;2023-02-28T04:06:44;4.70;99.90
56512;DHT22;42408;53.238;5.686;2023-02-28T04:09:13;4.80;99.90
56512;DHT22;42408;53.238;5.686;2023-02-28T04:11:45;4.70;99.90
56512;DHT22;42408;53.238;5.686;2023-02-28T04:14:12;4.70;99.90
56512;DHT22;42408;53.238;5.686;2023-02-28T04:16:39;5.10;99.90
56512;DHT22;42408;53.238;5.686;2023-02-28T04:19:07;4.70;99.90
56512;DHT22;42408;53.238;5.686;2023-02-28T04:21:40;4.70;99.90
56512;DHT22;42408;53.238;5.686;2023-02-28T04:24:08;4.70;99.90
56512;DHT22;42408;53.238;5.686;2023-02-28T04:26:41;4.70;99.90
56512;DHT22;42408;53.238;5.686;2023-02-28T04:29:07;4.70;99.90
56512;DHT22;42408;53.238;5.686;2023-02-28T04:31:33;4.70;99.90
56512;DHT22;42408;53.238;5.686;2023-02-28T04:34:00;4.70;99.90
56512;DHT22;42408;53.238;5.686;2023-02-28T04:36:25;4.70;99.90
56512;DHT22;42408;53.238;5.686;2023-02-28T04:38:51;4.80;99.90
56512;DHT22;42408;53.238;5.686;2023-02-28T04:41:17;4.90;99.90
56512;DHT22;42408;53.238;5.686;2023-02-28T04:43:43;4.90;99.90
56512;DHT22;42408;53.238;5.686;2023-02-28T04:46:09;4.90;99.90
56512;DHT22;42408;53.238;5.686;2023-02-28T04:48:37;5.00;99.90
56512;DHT22;42408;53.238;5.686;2023-02-28T04:51:04;5.00;99.90
56512;DHT22;42408;53.238;5.686;2023-02-28T04:53:30;5.00;99.90
56512;DHT22;42408;53.238;5.686;2023-02-28T04:55:57;5.00;99.90
56512;DHT22;42408;53.238;5.686;2023-02-28T04:58:23;5.00;99.90
56512;DHT22;42408;53.238;5.686;2023-02-28T05:00:50;5.10;99.90
56512;DHT22;42408;53.238;5.686;2023-02-28T05:03:15;5.00;99.90
56512;DHT22;42408;53.238;5.686;2023-02-28T05:05:41;5.10;99.90
56512;DHT22;42408;53.238;5.686;2023-02-28T05:08:07;5.10;99.90
56512;DHT22;42408;53.238;5.686;2023-02-28T05:10:32;5.30;99.90
56512;DHT22;42408;53.238;5.686;2023-02-28T05:12:58;5.20;99.90
56512;DHT22;42408;53.238;5.686;2023-02-28T05:15:24;5.20;99.90
56512;DHT22;42408;53.238;5.686;2023-02-28T05:17:50;5.20;99.90
56512;DHT22;42408;53.238;5.686;2023-02-28T05:20:16;5.20;99.90
56512;DHT22;42408;53.238;5.686;2023-02-28T05:22:42;5.30;99.90
56512;DHT22;42408;53.238;5.686;2023-02-28T05:25:18;5.30;99.90
56512;DHT22;42408;53.238;5.686;2023-02-28T05:27:45;5.30;99.90
56512;DHT22;42408;53.238;5.686;2023-02-28T05:30:11;5.40;99.90
56512;DHT22;42408;53.238;5.686;2023-02-28T05:32:38;5.40;99.90
56512;DHT22;42408;53.238;5.686;2023-02-28T05:35:04;5.40;99.90
56512;DHT22;42408;53.238;5.686;2023-02-28T05:37:30;5.40;99.90
56512;DHT22;42408;53.238;5.686;2023-02-28T05:39:56;5.40;99.90
56512;DHT22;42408;53.238;5.686;2023-02-28T05:42:22;5.40;99.90
56512;DHT22;42408;53.238;5.686;2023-02-28T05:44:47;5.50;99.90
56512;DHT22;42408;53.238;5.686;2023-02-28T05:47:13;5.50;99.90
56512;DHT22;42408;53.238;5.686;2023-02-28T05:49:41;5.50;99.90
56512;DHT22;42408;53.238;5.686;2023-02-28T05:52:07;5.50;99.90
56512;DHT22;42408;53.238;5.686;2023-02-28T05:54:33;5.50;99.90
56512;DHT22;42408;53.238;5.686;2023-02-28T05:56:58;5.50;99.90
56512;DHT22;42408;53.238;5.686;2023-02-28T05:59:24;5.50;99.90
56512;DHT22;42408;53.238;5.686;2023-02-28T06:01:49;5.50;99.90
56512;DHT22;42408;53.238;5.686;2023-02-28T06:04:18;5.50;99.90
56512;DHT22;42408;53.238;5.686;2023-02-28T06:06:47;5.50;99.90
56512;DHT22;42408;53.238;5.686;2023-02-28T06:09:13;5.60;99.90
56512;DHT22;42408;53.238;5.686;2023-02-28T06:11:40;5.50;99.90
56512;DHT22;42408;53.238;5.686;2023-02-28T06:14:06;5.50;99.90
56512;DHT22;42408;53.238;5.686;2023-02-28T06:16:34;5.40;99.90
56512;DHT22;42408;53.238;5.686;2023-02-28T06:19:02;5.70;99.90
56512;DHT22;42408;53.238;5.686;2023-02-28T06:21:28;5.50;99.90
56512;DHT22;42408;53.238;5.686;2023-02-28T06:23:55;5.50;99.90
56512;DHT22;42408;53.238;5.686;2023-02-28T06:26:21;5.50;99.90
56512;DHT22;42408;53.238;5.686;2023-02-28T06:28:48;5.50;99.90
56512;DHT22;42408;53.238;5.686;2023-02-28T06:31:16;5.50;99.90
56512;DHT22;42408;53.238;5.686;2023-02-28T06:33:42;5.50;99.90
56512;DHT22;42408;53.238;5.686;2023-02-28T06:36:10;5.50;99.90
56512;DHT22;42408;53.238;5.686;2023-02-28T06:38:36;5.40;99.90
56512;DHT22;42408;53.238;5.686;2023-02-28T06:41:03;5.50;99.90
56512;DHT22;42408;53.238;5.686;2023-02-28T06:43:30;5.50;99.90
56512;DHT22;42408;53.238;5.686;2023-02-28T06:45:58;5.50;99.90
56512;DHT22;42408;53.238;5.686;2023-02-28T06:48:26;5.50;99.90
56512;DHT22;42408;53.238;5.686;2023-02-28T06:50:52;5.50;99.90
56512;DHT22;42408;53.238;5.686;2023-02-28T06:53:17;5.40;99.90
56512;DHT22;42408;53.238;5.686;2023-02-28T06:55:43;5.50;99.90
56512;DHT22;42408;53.238;5.686;2023-02-28T06:58:09;5.50;99.90
56512;DHT22;42408;53.238;5.686;2023-02-28T07:00:44;5.50;99.90
56512;DHT22;42408;53.238;5.686;2023-02-28T07:03:11;5.50;99.90
56512;DHT22;42408;53.238;5.686;2023-02-28T07:05:39;5.40;99.90
56512;DHT22;42408;53.238;5.686;2023-02-28T07:08:05;5.30;99.90
56512;DHT22;42408;53.238;5.686;2023-02-28T07:10:32;5.10;99.90
56512;DHT22;42408;53.238;5.686;2023-02-28T07:12:58;5.00;99.90
56512;DHT22;42408;53.238;5.686;2023-02-28T07:15:24;4.90;99.90
56512;DHT22;42408;53.238;5.686;2023-02-28T07:17:50;4.90;99.90
56512;DHT22;42408;53.238;5.686;2023-02-28T07:20:16;4.80;99.90
56512;DHT22;42408;53.238;5.686;2023-02-28T07:22:41;4.70;99.90
56512;DHT22;42408;53.238;5.686;2023-02-28T07:25:07;4.70;99.90
56512;DHT22;42408;53.238;5.686;2023-02-28T07:27:33;4.70;99.90
56512;DHT22;42408;53.238;5.686;2023-02-28T07:29:59;4.60;99.90
56512;DHT22;42408;53.238;5.686;2023-02-28T07:32:27;4.50;99.90
56512;DHT22;42408;53.238;5.686;2023-02-28T07:34:53;4.60;99.90
56512;DHT22;42408;53.238;5.686;2023-02-28T07:37:19;4.40;99.90
56512;DHT22;42408;53.238;5.686;2023-02-28T07:39:45;4.30;99.90
56512;DHT22;42408;53.238;5.686;2023-02-28T07:42:11;4.30;99.90
56512;DHT22;42408;53.238;5.686;2023-02-28T07:44:38;4.20;99.90
56512;DHT22;42408;53.238;5.686;2023-02-28T07:47:10;4.20;99.90
56512;DHT22;42408;53.238;5.686;2023-02-28T07:49:38;4.20;99.90
56512;DHT22;42408;53.238;5.686;2023-02-28T07:52:07;4.10;99.90
56512;DHT22;42408;53.238;5.686;2023-02-28T07:54:33;4.20;99.90
56512;DHT22;42408;53.238;5.686;2023-02-28T07:56:59;4.20;99.90
56512;DHT22;42408;53.238;5.686;2023-02-28T07:59:25;4.20;99.90
56512;DHT22;42408;53.238;5.686;2023-02-28T08:01:51;4.10;99.90
56512;DHT22;42408;53.238;5.686;2023-02-28T08:04:17;4.10;99.90
56512;DHT22;42408;53.238;5.686;2023-02-28T08:06:43;4.10;99.90
56512;DHT22;42408;53.238;5.686;2023-02-28T08:09:09;4.00;99.90
56512;DHT22;42408;53.238;5.686;2023-02-28T08:11:35;4.00;99.90
56512;DHT22;42408;53.238;5.686;2023-02-28T08:14:01;4.00;99.90
56512;DHT22;42408;53.238;5.686;2023-02-28T08:16:27;4.00;99.90
56512;DHT22;42408;53.238;5.686;2023-02-28T08:18:53;4.00;99.90
56512;DHT22;42408;53.238;5.686;2023-02-28T08:21:20;4.00;99.90
56512;DHT22;42408;53.238;5.686;2023-02-28T08:23:49;4.00;99.90
56512;DHT22;42408;53.238;5.686;2023-02-28T08:26:16;4.00;99.90
56512;DHT22;42408;53.238;5.686;2023-02-28T08:28:42;4.00;99.90
56512;DHT22;42408;53.238;5.686;2023-02-28T08:31:09;4.00;99.90
56512;DHT22;42408;53.238;5.686;2023-02-28T08:33:35;4.00;99.90
56512;DHT22;42408;53.238;5.686;2023-02-28T08:36:02;4.00;99.90
56512;DHT22;42408;53.238;5.686;2023-02-28T08:38:27;4.10;99.90
56512;DHT22;42408;53.238;5.686;2023-02-28T08:41:00;4.00;99.90
56512;DHT22;42408;53.238;5.686;2023-02-28T08:43:27;4.00;99.90
56512;DHT22;42408;53.238;5.686;2023-02-28T08:45:57;4.00;99.90
56512;DHT22;42408;53.238;5.686;2023-02-28T08:48:24;4.00;99.90
56512;DHT22;42408;53.238;5.686;2023-02-28T08:50:56;4.00;99.90
56512;DHT22;42408;53.238;5.686;2023-02-28T08:53:22;4.10;99.90
56512;DHT22;42408;53.238;5.686;2023-02-28T08:55:56;4.10;99.90
56512;DHT22;42408;53.238;5.686;2023-02-28T08:58:21;4.10;99.90
56512;DHT22;42408;53.238;5.686;2023-02-28T09:00:47;4.10;99.90
56512;DHT22;42408;53.238;5.686;2023-02-28T09:03:12;4.10;99.90
56512;DHT22;42408;53.238;5.686;2023-02-28T09:05:38;4.20;99.90
56512;DHT22;42408;53.238;5.686;2023-02-28T09:08:04;4.20;99.90
56512;DHT22;42408;53.238;5.686;2023-02-28T09:10:30;4.30;99.90
56512;DHT22;42408;53.238;5.686;2023-02-28T09:12:55;4.40;99.90
56512;DHT22;42408;53.238;5.686;2023-02-28T09:15:21;4.40;99.90
56512;DHT22;42408;53.238;5.686;2023-02-28T09:17:46;4.50;99.90
56512;DHT22;42408;53.238;5.686;2023-02-28T09:20:12;4.50;99.90
56512;DHT22;42408;53.238;5.686;2023-02-28T09:22:38;4.60;99.90
56512;DHT22;42408;53.238;5.686;2023-02-28T09:25:04;4.70;99.90
56512;DHT22;42408;53.238;5.686;2023-02-28T09:27:30;4.60;99.90
56512;DHT22;42408;53.238;5.686;2023-02-28T09:29:55;4.70;99.90
56512;DHT22;42408;53.238;5.686;2023-02-28T09:32:21;4.60;99.90
56512;DHT22;42408;53.238;5.686;2023-02-28T09:34:47;4.80;99.90
56512;DHT22;42408;53.238;5.686;2023-02-28T09:37:12;4.80;99.90
56512;DHT22;42408;53.238;5.686;2023-02-28T09:39:38;4.80;99.90
56512;DHT22;42408;53.238;5.686;2023-02-28T09:42:04;4.80;99.90
56512;DHT22;42408;53.238;5.686;2023-02-28T09:44:40;4.80;99.90
56512;DHT22;42408;53.238;5.686;2023-02-28T09:47:16;4.90;99.90
56512;DHT22;42408;53.238;5.686;2023-02-28T09:49:46;4.90;99.90
56512;DHT22;42408;53.238;5.686;2023-02-28T09:52:17;4.90;99.90
56512;DHT22;42408;53.238;5.686;2023-02-28T09:54:45;4.90;99.90
56512;DHT22;42408;53.238;5.686;2023-02-28T10:00:02;5.10;99.90
56512;DHT22;42408;53.238;5.686;2023-02-28T10:02:57;5.20;99.90
56512;DHT22;42408;53.238;5.686;2023-02-28T10:05:41;5.20;99.90
56512;DHT22;42408;53.238;5.686;2023-02-28T10:08:40;5.30;99.90
56512;DHT22;42408;53.238;5.686;2023-02-28T10:11:15;5.30;99.90
56512;DHT22;42408;53.238;5.686;2023-02-28T10:13:59;5.30;99.90
56512;DHT22;42408;53.238;5.686;2023-02-28T10:19:18;5.30;99.90
56512;DHT22;42408;53.238;5.686;2023-02-28T10:21:57;5.30;99.90
56512;DHT22;42408;53.238;5.686;2023-02-28T10:24:39;5.30;99.90
56512;DHT22;42408;53.238;5.686;2023-02-28T10:27:25;5.40;99.90
56512;DHT22;42408;53.238;5.686;2023-02-28T10:29:56;5.50;99.90
56512;DHT22;42408;53.238;5.686;2023-02-28T10:32:27;5.40;99.90
56512;DHT22;42408;53.238;5.686;2023-02-28T10:37:40;5.50;99.90
56512;DHT22;42408;53.238;5.686;2023-02-28T10:43:04;5.50;99.90
56512;DHT22;42408;53.238;5.686;2023-02-28T10:45:34;5.50;99.90
56512;DHT22;42408;53.238;5.686;2023-02-28T10:48:03;5.50;99.90
56512;DHT22;42408;53.238;5.686;2023-02-28T10:55:33;5.80;99.90
56512;DHT22;42408;53.238;5.686;2023-02-28T10:57:59;6.00;99.90
56512;DHT22;42408;53.238;5.686;2023-02-28T11:00:25;6.30;99.90
56512;DHT22;42408;53.238;5.686;2023-02-28T11:02:56;6.60;99.90
56512;DHT22;42408;53.238;5.686;2023-02-28T11:08:19;7.30;99.90
56512;DHT22;42408;53.238;5.686;2023-02-28T11:10:54;7.40;99.90
56512;DHT22;42408;53.238;5.686;2023-02-28T11:13:31;7.60;99.90
56512;DHT22;42408;53.238;5.686;2023-02-28T11:15:59;7.70;99.90
56512;DHT22;42408;53.238;5.686;2023-02-28T11:18:48;7.80;99.90
56512;DHT22;42408;53.238;5.686;2023-02-28T11:23:51;7.60;99.90
56512;DHT22;42408;53.238;5.686;2023-02-28T11:26:38;7.60;99.90
56512;DHT22;42408;53.238;5.686;2023-02-28T11:31:40;7.60;99.90
56512;DHT22;42408;53.238;5.686;2023-02-28T11:34:24;7.50;99.90
56512;DHT22;42408;53.238;5.686;2023-02-28T11:36:51;7.60;99.90
56512;DHT22;42408;53.238;5.686;2023-02-28T11:39:17;7.50;99.90
56512;DHT22;42408;53.238;5.686;2023-02-28T11:52:53;7.70;99.90
56512;DHT22;42408;53.238;5.686;2023-02-28T11:55:31;7.80;99.90
56512;DHT22;42408;53.238;5.686;2023-02-28T12:01:06;8.00;99.90
56512;DHT22;42408;53.238;5.686;2023-02-28T12:09:00;8.20;99.90
56512;DHT22;42408;53.238;5.686;2023-02-28T12:11:41;8.20;99.90
56512;DHT22;42408;53.238;5.686;2023-02-28T12:17:06;8.30;99.90
56512;DHT22;42408;53.238;5.686;2023-02-28T12:22:43;8.40;99.90
56512;DHT22;42408;53.238;5.686;2023-02-28T12:28:11;8.50;99.90
56512;DHT22;42408;53.238;5.686;2023-02-28T12:33:23;8.60;99.90
56512;DHT22;42408;53.238;5.686;2023-02-28T12:35:54;8.70;99.90
56512;DHT22;42408;53.238;5.686;2023-02-28T12:41:39;8.70;99.90
56512;DHT22;42408;53.238;5.686;2023-02-28T12:44:19;8.80;99.90
56512;DHT22;42408;53.238;5.686;2023-02-28T12:46:50;8.80;99.90
56512;DHT22;42408;53.238;5.686;2023-02-28T12:49:27;8.80;99.90
56512;DHT22;42408;53.238;5.686;2023-02-28T12:51:57;8.80;99.90
56512;DHT22;42408;53.238;5.686;2023-02-28T12:54:47;8.80;99.90
56512;DHT22;42408;53.238;5.686;2023-02-28T12:58:17;8.70;99.90
56512;DHT22;42408;53.238;5.686;2023-02-28T13:00:25;8.60;99.90
56512;DHT22;42408;53.238;5.686;2023-02-28T13:09:03;8.60;99.90
56512;DHT22;42408;53.238;5.686;2023-02-28T13:11:53;8.80;99.90
56512;DHT22;42408;53.238;5.686;2023-02-28T13:19:30;9.20;99.90
56512;DHT22;42408;53.238;5.686;2023-02-28T13:21:57;9.30;99.90
56512;DHT22;42408;53.238;5.686;2023-02-28T13:24:53;9.40;99.90
56512;DHT22;42408;53.238;5.686;2023-02-28T13:27:23;9.50;99.90
56512;DHT22;42408;53.238;5.686;2023-02-28T13:29:51;9.70;99.90
56512;DHT22;42408;53.238;5.686;2023-02-28T13:32:30;9.80;99.90
56512;DHT22;42408;53.238;5.686;2023-02-28T13:40:32;9.80;99.90
56512;DHT22;42408;53.238;5.686;2023-02-28T13:43:02;9.70;99.90
56512;DHT22;42408;53.238;5.686;2023-02-28T13:45:29;9.60;99.90
56512;DHT22;42408;53.238;5.686;2023-02-28T13:48:01;9.40;99.90
56512;DHT22;42408;53.238;5.686;2023-02-28T13:50:36;9.30;99.90
56512;DHT22;42408;53.238;5.686;2023-02-28T13:55:44;9.10;99.90
56512;DHT22;42408;53.238;5.686;2023-02-28T14:07:30;8.50;99.90
56512;DHT22;42408;53.238;5.686;2023-02-28T14:10:05;8.30;99.90
56512;DHT22;42408;53.238;5.686;2023-02-28T14:12:56;8.20;99.90
56512;DHT22;42408;53.238;5.686;2023-02-28T14:15:47;8.20;99.90
56512;DHT22;42408;53.238;5.686;2023-02-28T14:18:42;8.20;99.90
56512;DHT22;42408;53.238;5.686;2023-02-28T14:21:31;8.20;99.90
56512;DHT22;42408;53.238;5.686;2023-02-28T14:32:41;8.50;99.90
56512;DHT22;42408;53.238;5.686;2023-02-28T14:38:32;8.80;99.90
56512;DHT22;42408;53.238;5.686;2023-02-28T14:41:03;9.00;99.90
56512;DHT22;42408;53.238;5.686;2023-02-28T14:43:29;9.10;99.90
56512;DHT22;42408;53.238;5.686;2023-02-28T14:45:59;9.20;99.90
56512;DHT22;42408;53.238;5.686;2023-02-28T14:48:26;9.30;99.90
56512;DHT22;42408;53.238;5.686;2023-02-28T14:51:00;9.30;99.90
56512;DHT22;42408;53.238;5.686;2023-02-28T14:53:35;9.20;99.90
56512;DHT22;42408;53.238;5.686;2023-02-28T14:56:01;9.00;99.90
56512;DHT22;42408;53.238;5.686;2023-02-28T14:58:30;9.00;99.90
56512;DHT22;42408;53.238;5.686;2023-02-28T15:00:59;8.80;99.90
56512;DHT22;42408;53.238;5.686;2023-02-28T15:03:35;8.70;99.90
56512;DHT22;42408;53.238;5.686;2023-02-28T15:06:03;8.60;99.90
56512;DHT22;42408;53.238;5.686;2023-02-28T15:08:30;8.60;99.90
56512;DHT22;42408;53.238;5.686;2023-02-28T15:11:17;8.60;99.90
56512;DHT22;42408;53.238;5.686;2023-02-28T15:13:54;8.60;99.90
56512;DHT22;42408;53.238;5.686;2023-02-28T15:16:31;8.60;99.90
56512;DHT22;42408;53.238;5.686;2023-02-28T15:19:26;8.50;99.90
56512;DHT22;42408;53.238;5.686;2023-02-28T15:22:01;8.40;99.90
56512;DHT22;42408;53.238;5.686;2023-02-28T15:24:46;8.40;99.90
56512;DHT22;42408;53.238;5.686;2023-02-28T15:29:49;8.20;99.90
56512;DHT22;42408;53.238;5.686;2023-02-28T15:32:37;8.20;99.90
56512;DHT22;42408;53.238;5.686;2023-02-28T15:35:37;8.20;99.90
56512;DHT22;42408;53.238;5.686;2023-02-28T15:38:04;8.20;99.90
56512;DHT22;42408;53.238;5.686;2023-02-28T15:40:44;8.20;99.90
56512;DHT22;42408;53.238;5.686;2023-02-28T15:43:18;8.20;99.90
56512;DHT22;42408;53.238;5.686;2023-02-28T15:45:52;8.20;99.90
56512;DHT22;42408;53.238;5.686;2023-02-28T15:48:34;8.20;99.90
56512;DHT22;42408;53.238;5.686;2023-02-28T15:51:09;8.20;99.90
56512;DHT22;42408;53.238;5.686;2023-02-28T15:53:50;8.20;99.90
56512;DHT22;42408;53.238;5.686;2023-02-28T15:58:48;8.10;99.90
56512;DHT22;42408;53.238;5.686;2023-02-28T16:01:30;8.10;99.90
56512;DHT22;42408;53.238;5.686;2023-02-28T16:04:03;8.10;99.90
56512;DHT22;42408;53.238;5.686;2023-02-28T16:09:16;8.00;99.90
56512;DHT22;42408;53.238;5.686;2023-02-28T16:11:48;7.90;99.90
56512;DHT22;42408;53.238;5.686;2023-02-28T16:14:25;7.90;99.90
56512;DHT22;42408;53.238;5.686;2023-02-28T16:16:56;7.80;99.90
56512;DHT22;42408;53.238;5.686;2023-02-28T16:19:22;7.80;99.90
56512;DHT22;42408;53.238;5.686;2023-02-28T16:21:48;7.70;99.90
56512;DHT22;42408;53.238;5.686;2023-02-28T16:24:14;7.70;99.90
56512;DHT22;42408;53.238;5.686;2023-02-28T16:26:40;7.60;99.90
56512;DHT22;42408;53.238;5.686;2023-02-28T16:29:08;7.60;99.90
56512;DHT22;42408;53.238;5.686;2023-02-28T16:31:37;7.50;99.90
56512;DHT22;42408;53.238;5.686;2023-02-28T16:34:04;7.40;99.90
56512;DHT22;42408;53.238;5.686;2023-02-28T16:36:30;7.40;99.90
56512;DHT22;42408;53.238;5.686;2023-02-28T16:38:56;7.40;99.90
56512;DHT22;42408;53.238;5.686;2023-02-28T16:41:24;7.30;99.90
56512;DHT22;42408;53.238;5.686;2023-02-28T16:43:53;7.20;99.90
56512;DHT22;42408;53.238;5.686;2023-02-28T16:46:20;7.10;99.90
56512;DHT22;42408;53.238;5.686;2023-02-28T16:48:46;7.00;99.90
56512;DHT22;42408;53.238;5.686;2023-02-28T16:51:17;6.90;99.90
56512;DHT22;42408;53.238;5.686;2023-02-28T16:53:44;6.80;99.90
56512;DHT22;42408;53.238;5.686;2023-02-28T16:56:24;6.70;99.90
56512;DHT22;42408;53.238;5.686;2023-02-28T16:58:51;6.60;99.90
56512;DHT22;42408;53.238;5.686;2023-02-28T17:01:19;6.50;99.90
56512;DHT22;42408;53.238;5.686;2023-02-28T17:03:50;6.50;99.90
56512;DHT22;42408;53.238;5.686;2023-02-28T17:06:22;6.30;99.90
56512;DHT22;42408;53.238;5.686;2023-02-28T17:08:49;6.30;99.90
56512;DHT22;42408;53.238;5.686;2023-02-28T17:11:16;6.10;99.90
56512;DHT22;42408;53.238;5.686;2023-02-28T17:13:41;6.00;99.90
56512;DHT22;42408;53.238;5.686;2023-02-28T17:16:35;6.00;99.90
56512;DHT22;42408;53.238;5.686;2023-02-28T17:19:02;5.90;99.90
56512;DHT22;42408;53.238;5.686;2023-02-28T17:21:29;5.80;99.90
56512;DHT22;42408;53.238;5.686;2023-02-28T17:23:55;5.70;99.90
56512;DHT22;42408;53.238;5.686;2023-02-28T17:26:24;5.70;99.90
56512;DHT22;42408;53.238;5.686;2023-02-28T17:28:51;5.60;99.90
56512;DHT22;42408;53.238;5.686;2023-02-28T17:31:18;5.50;99.90
56512;DHT22;42408;53.238;5.686;2023-02-28T17:33:44;5.50;99.90
56512;DHT22;42408;53.238;5.686;2023-02-28T17:36:30;5.40;99.90
56512;DHT22;42408;53.238;5.686;2023-02-28T17:38:56;5.40;99.90
56512;DHT22;42408;53.238;5.686;2023-02-28T17:41:23;5.30;99.90
56512;DHT22;42408;53.238;5.686;2023-02-28T17:43:49;5.20;99.90
56512;DHT22;42408;53.238;5.686;2023-02-28T17:46:18;5.20;99.90
56512;DHT22;42408;53.238;5.686;2023-02-28T17:48:49;5.10;99.90
56512;DHT22;42408;53.238;5.686;2023-02-28T17:51:17;5.10;99.90
56512;DHT22;42408;53.238;5.686;2023-02-28T17:53:43;5.00;99.90
56512;DHT22;42408;53.238;5.686;2023-02-28T17:56:18;4.90;99.90
56512;DHT22;42408;53.238;5.686;2023-02-28T17:58:44;4.80;99.90
56512;DHT22;42408;53.238;5.686;2023-02-28T18:01:10;4.80;99.90
56512;DHT22;42408;53.238;5.686;2023-02-28T18:03:37;4.80;99.90
56512;DHT22;42408;53.238;5.686;2023-02-28T18:06:03;4.70;99.90
56512;DHT22;42408;53.238;5.686;2023-02-28T18:08:29;4.60;99.90
56512;DHT22;42408;53.238;5.686;2023-02-28T18:10:54;4.60;99.90
56512;DHT22;42408;53.238;5.686;2023-02-28T18:13:20;4.50;99.90
56512;DHT22;42408;53.238;5.686;2023-02-28T18:15:46;4.40;99.90
56512;DHT22;42408;53.238;5.686;2023-02-28T18:18:12;4.30;99.90
56512;DHT22;42408;53.238;5.686;2023-02-28T18:20:38;4.30;99.90
56512;DHT22;42408;53.238;5.686;2023-02-28T18:23:04;4.20;99.90
56512;DHT22;42408;53.238;5.686;2023-02-28T18:25:29;4.20;99.90
56512;DHT22;42408;53.238;5.686;2023-02-28T18:27:55;4.10;99.90